Terminal Aerodrome Forecast
Issued by NWS

Home | Current Version | Previous Version | Text Only | Print | Product List | Glossary On
Versions: 1 2 3 4 5 6 7 8 9 10 11 12 13 14 15 16 17
035
FTPA31 PHFO 251144
TAFHLI
TAF
PHLI 251144Z 2512/2612 20009KT 6SM -SHRA BR OVC025
      TEMPO 2514/2518 3SM SHRA BR SCT015 BKN020
     FM260000 14012KT P6SM VCSH SCT025 BKN045=

USA.gov is the U.S. government's official web portal to all federal, state and local government web resources and services.